sensor_id;sensor_type;location;lat;lon;timestamp;pressure;altitude;pressure_sealevel;temperature;humidity
63708;BME280;67643;-34.198;22.084;2023-04-23T00:00:14;99470.45;;;18.68;36.80
63708;BME280;67643;-34.198;22.084;2023-04-23T02:06:20;99458.63;;;15.17;48.32
63708;BME280;67643;-34.198;22.084;2023-04-23T02:08:48;99460.42;;;16.44;44.31
63708;BME280;67643;-34.198;22.084;2023-04-23T02:11:17;99456.56;;;17.23;41.96
63708;BME280;67643;-34.198;22.084;2023-04-23T02:13:45;99452.83;;;17.57;40.58
63708;BME280;67643;-34.198;22.084;2023-04-23T02:16:14;99450.38;;;18.54;39.81
63708;BME280;67643;-34.198;22.084;2023-04-23T02:18:42;99446.88;;;18.43;39.22
63708;BME280;67643;-34.198;22.084;2023-04-23T02:21:11;99443.04;;;18.55;38.96
63708;BME280;67643;-34.198;22.084;2023-04-23T02:23:39;99440.82;;;18.53;38.70
63708;BME280;67643;-34.198;22.084;2023-04-23T02:26:08;99440.58;;;18.46;38.42
63708;BME280;67643;-34.198;22.084;2023-04-23T02:28:37;99429.59;;;18.93;38.14
63708;BME280;67643;-34.198;22.084;2023-04-23T02:31:05;99439.36;;;18.67;38.16
63708;BME280;67643;-34.198;22.084;2023-04-23T02:33:34;99441.24;;;18.67;38.15
63708;BME280;67643;-34.198;22.084;2023-04-23T02:36:02;99431.84;;;18.73;38.18
63708;BME280;67643;-34.198;22.084;2023-04-23T02:38:30;99445.63;;;18.72;38.14
63708;BME280;67643;-34.198;22.084;2023-04-23T02:40:59;99457.37;;;18.52;38.15
63708;BME280;67643;-34.198;22.084;2023-04-23T02:43:27;99460.98;;;18.92;37.94
63708;BME280;67643;-34.198;22.084;2023-04-23T02:45:56;99482.34;;;18.91;38.01
63708;BME280;67643;-34.198;22.084;2023-04-23T02:48:25;99486.93;;;18.76;38.21
63708;BME280;67643;-34.198;22.084;2023-04-23T02:50:53;99490.59;;;18.76;38.21
63708;BME280;67643;-34.198;22.084;2023-04-23T02:53:21;99504.34;;;18.68;38.33
63708;BME280;67643;-34.198;22.084;2023-04-23T02:55:50;99510.15;;;18.59;38.48
63708;BME280;67643;-34.198;22.084;2023-04-23T02:58:19;99515.67;;;18.58;38.55
63708;BME280;67643;-34.198;22.084;2023-04-23T03:00:47;99514.83;;;18.61;38.50
63708;BME280;67643;-34.198;22.084;2023-04-23T03:03:16;99521.80;;;18.57;38.64
63708;BME280;67643;-34.198;22.084;2023-04-23T03:05:44;99526.66;;;18.55;38.72
63708;BME280;67643;-34.198;22.084;2023-04-23T03:08:13;99533.51;;;18.58;38.76
63708;BME280;67643;-34.198;22.084;2023-04-23T03:10:42;99535.91;;;18.64;38.76
63708;BME280;67643;-34.198;22.084;2023-04-23T03:13:10;99537.98;;;18.60;38.59
63708;BME280;67643;-34.198;22.084;2023-04-23T03:15:40;99537.29;;;18.98;38.55
63708;BME280;67643;-34.198;22.084;2023-04-23T03:18:08;99531.12;;;18.84;38.40
63708;BME280;67643;-34.198;22.084;2023-04-23T03:20:37;99526.14;;;18.58;38.45
63708;BME280;67643;-34.198;22.084;2023-04-23T03:23:05;99517.38;;;18.92;38.28
63708;BME280;67643;-34.198;22.084;2023-04-23T03:25:34;99506.93;;;18.75;38.51
63708;BME280;67643;-34.198;22.084;2023-04-23T03:28:02;99499.93;;;19.38;38.55
63708;BME280;67643;-34.198;22.084;2023-04-23T03:30:31;99498.87;;;19.01;38.65
63708;BME280;67643;-34.198;22.084;2023-04-23T03:32:59;99492.28;;;19.62;38.87
63708;BME280;67643;-34.198;22.084;2023-04-23T03:35:28;99499.99;;;19.69;38.58
63708;BME280;67643;-34.198;22.084;2023-04-23T03:37:56;99500.25;;;19.78;38.45
63708;BME280;67643;-34.198;22.084;2023-04-23T03:40:25;99494.72;;;19.56;38.02
63708;BME280;67643;-34.198;22.084;2023-04-23T03:42:53;99480.32;;;19.65;38.21
63708;BME280;67643;-34.198;22.084;2023-04-23T03:45:22;99479.59;;;19.44;38.17
63708;BME280;67643;-34.198;22.084;2023-04-23T03:47:50;99484.35;;;19.34;38.06
63708;BME280;67643;-34.198;22.084;2023-04-23T03:50:19;99499.19;;;19.41;38.31
63708;BME280;67643;-34.198;22.084;2023-04-23T03:52:47;99513.05;;;19.48;38.51
63708;BME280;67643;-34.198;22.084;2023-04-23T03:55:16;99512.18;;;19.61;39.00
63708;BME280;67643;-34.198;22.084;2023-04-23T03:57:44;99512.29;;;19.69;39.13
63708;BME280;67643;-34.198;22.084;2023-04-23T04:00:13;99519.55;;;19.34;39.38
63708;BME280;67643;-34.198;22.084;2023-04-23T04:02:42;99529.91;;;19.26;38.93
63708;BME280;67643;-34.198;22.084;2023-04-23T04:05:10;99528.31;;;19.58;38.90
63708;BME280;67643;-34.198;22.084;2023-04-23T04:07:39;99543.36;;;19.64;38.88
63708;BME280;67643;-34.198;22.084;2023-04-23T04:10:08;99546.77;;;19.52;38.74
63708;BME280;67643;-34.198;22.084;2023-04-23T04:12:37;99553.80;;;19.33;38.77
63708;BME280;67643;-34.198;22.084;2023-04-23T04:15:06;99558.28;;;19.34;38.95
63708;BME280;67643;-34.198;22.084;2023-04-23T04:17:35;99555.99;;;19.30;38.69
63708;BME280;67643;-34.198;22.084;2023-04-23T04:20:03;99552.70;;;19.49;39.14
63708;BME280;67643;-34.198;22.084;2023-04-23T04:22:31;99546.20;;;19.20;39.50
63708;BME280;67643;-34.198;22.084;2023-04-23T04:25:00;99550.61;;;19.35;39.65
63708;BME280;67643;-34.198;22.084;2023-04-23T04:27:29;99549.11;;;19.54;39.30
63708;BME280;67643;-34.198;22.084;2023-04-23T04:29:57;99543.67;;;19.50;39.35
63708;BME280;67643;-34.198;22.084;2023-04-23T04:32:26;99537.11;;;19.61;38.87
63708;BME280;67643;-34.198;22.084;2023-04-23T04:34:54;99539.42;;;19.61;38.74
63708;BME280;67643;-34.198;22.084;2023-04-23T04:37:23;99544.31;;;19.04;38.94
63708;BME280;67643;-34.198;22.084;2023-04-23T04:39:51;99539.44;;;19.51;38.95
63708;BME280;67643;-34.198;22.084;2023-04-23T04:42:20;99533.26;;;19.42;39.09
63708;BME280;67643;-34.198;22.084;2023-04-23T04:44:48;99532.72;;;19.29;39.33
63708;BME280;67643;-34.198;22.084;2023-04-23T04:47:17;99532.57;;;19.41;39.19
63708;BME280;67643;-34.198;22.084;2023-04-23T04:49:46;99537.01;;;19.32;39.53
63708;BME280;67643;-34.198;22.084;2023-04-23T04:52:15;99544.22;;;19.22;39.81
63708;BME280;67643;-34.198;22.084;2023-04-23T04:54:43;99542.16;;;19.09;39.84
63708;BME280;67643;-34.198;22.084;2023-04-23T04:57:12;99535.54;;;19.09;39.84
63708;BME280;67643;-34.198;22.084;2023-04-23T04:59:40;99537.83;;;19.12;39.81
63708;BME280;67643;-34.198;22.084;2023-04-23T05:02:09;99541.66;;;19.13;39.74
63708;BME280;67643;-34.198;22.084;2023-04-23T05:04:37;99543.08;;;19.58;39.82
63708;BME280;67643;-34.198;22.084;2023-04-23T05:07:06;99540.23;;;19.26;39.51
63708;BME280;67643;-34.198;22.084;2023-04-23T05:09:34;99546.67;;;19.42;39.64
63708;BME280;67643;-34.198;22.084;2023-04-23T05:12:04;99548.51;;;19.04;39.84
63708;BME280;67643;-34.198;22.084;2023-04-23T05:14:33;99532.76;;;19.47;39.60
63708;BME280;67643;-34.198;22.084;2023-04-23T05:17:02;99516.64;;;19.20;39.57
63708;BME280;67643;-34.198;22.084;2023-04-23T05:19:30;99516.71;;;19.12;39.70
63708;BME280;67643;-34.198;22.084;2023-04-23T05:21:58;99526.18;;;19.06;39.77
63708;BME280;67643;-34.198;22.084;2023-04-23T05:24:27;99536.58;;;19.47;39.61
63708;BME280;67643;-34.198;22.084;2023-04-23T05:26:56;99539.98;;;18.99;39.93
63708;BME280;67643;-34.198;22.084;2023-04-23T05:29:24;99546.73;;;18.94;40.04
63708;BME280;67643;-34.198;22.084;2023-04-23T05:31:53;99549.19;;;18.96;40.01
63708;BME280;67643;-34.198;22.084;2023-04-23T05:34:21;99554.11;;;19.07;39.88
63708;BME280;67643;-34.198;22.084;2023-04-23T05:36:50;99554.46;;;19.36;39.88
63708;BME280;67643;-34.198;22.084;2023-04-23T05:39:18;99549.81;;;19.18;40.20
63708;BME280;67643;-34.198;22.084;2023-04-23T05:41:47;99543.26;;;18.95;40.13
63708;BME280;67643;-34.198;22.084;2023-04-23T05:44:16;99552.96;;;18.78;40.09
63708;BME280;67643;-34.198;22.084;2023-04-23T05:46:45;99559.19;;;19.09;40.07
63708;BME280;67643;-34.198;22.084;2023-04-23T05:49:13;99567.27;;;18.95;40.19
63708;BME280;67643;-34.198;22.084;2023-04-23T05:51:42;99575.93;;;18.93;40.26
63708;BME280;67643;-34.198;22.084;2023-04-23T05:54:10;99569.42;;;19.07;40.08
63708;BME280;67643;-34.198;22.084;2023-04-23T05:56:39;99560.71;;;19.16;39.96
63708;BME280;67643;-34.198;22.084;2023-04-23T05:59:07;99553.71;;;19.40;40.05
63708;BME280;67643;-34.198;22.084;2023-04-23T06:01:36;99549.92;;;18.92;40.40
63708;BME280;67643;-34.198;22.084;2023-04-23T06:04:05;99547.14;;;19.03;40.06
63708;BME280;67643;-34.198;22.084;2023-04-23T06:06:33;99547.40;;;19.11;40.25
63708;BME280;67643;-34.198;22.084;2023-04-23T06:09:02;99549.04;;;19.18;40.15
63708;BME280;67643;-34.198;22.084;2023-04-23T06:11:30;99548.01;;;19.22;40.19
63708;BME280;67643;-34.198;22.084;2023-04-23T06:13:59;99546.37;;;19.33;40.06
63708;BME280;67643;-34.198;22.084;2023-04-23T06:16:28;99544.58;;;19.08;40.20
63708;BME280;67643;-34.198;22.084;2023-04-23T06:18:57;99540.98;;;19.25;40.35
63708;BME280;67643;-34.198;22.084;2023-04-23T06:21:26;99548.27;;;19.60;39.86
63708;BME280;67643;-34.198;22.084;2023-04-23T06:23:55;99546.62;;;19.35;39.96
63708;BME280;67643;-34.198;22.084;2023-04-23T06:26:24;99541.02;;;19.46;40.24
63708;BME280;67643;-34.198;22.084;2023-04-23T06:28:52;99546.12;;;19.40;40.37
63708;BME280;67643;-34.198;22.084;2023-04-23T06:31:21;99546.69;;;19.42;40.04
63708;BME280;67643;-34.198;22.084;2023-04-23T06:33:50;99551.30;;;19.56;40.31
63708;BME280;67643;-34.198;22.084;2023-04-23T06:36:18;99554.00;;;19.46;40.18
63708;BME280;67643;-34.198;22.084;2023-04-23T06:38:47;99559.08;;;19.74;40.41
63708;BME280;67643;-34.198;22.084;2023-04-23T06:41:15;99556.77;;;19.57;40.39
63708;BME280;67643;-34.198;22.084;2023-04-23T06:43:44;99551.45;;;19.90;40.06
63708;BME280;67643;-34.198;22.084;2023-04-23T06:46:13;99557.90;;;19.70;40.03
63708;BME280;67643;-34.198;22.084;2023-04-23T06:48:41;99563.08;;;19.74;40.04
63708;BME280;67643;-34.198;22.084;2023-04-23T06:51:09;99565.91;;;19.46;40.15
63708;BME280;67643;-34.198;22.084;2023-04-23T06:53:38;99571.42;;;19.91;39.89
63708;BME280;67643;-34.198;22.084;2023-04-23T06:56:07;99578.79;;;19.92;40.20
63708;BME280;67643;-34.198;22.084;2023-04-23T06:58:35;99580.75;;;19.80;40.21
63708;BME280;67643;-34.198;22.084;2023-04-23T07:01:04;99585.31;;;19.81;40.17
63708;BME280;67643;-34.198;22.084;2023-04-23T07:03:32;99587.28;;;19.99;40.32
63708;BME280;67643;-34.198;22.084;2023-04-23T07:06:01;99592.56;;;19.97;40.13
63708;BME280;67643;-34.198;22.084;2023-04-23T07:08:29;99592.20;;;20.20;40.18
63708;BME280;67643;-34.198;22.084;2023-04-23T07:10:58;99601.65;;;20.22;40.15
63708;BME280;67643;-34.198;22.084;2023-04-23T07:13:28;99602.52;;;19.93;40.25
63708;BME280;67643;-34.198;22.084;2023-04-23T07:15:57;99601.09;;;19.97;40.25
63708;BME280;67643;-34.198;22.084;2023-04-23T07:18:27;99608.51;;;19.96;40.33
63708;BME280;67643;-34.198;22.084;2023-04-23T07:20:55;99614.79;;;20.20;40.29
63708;BME280;67643;-34.198;22.084;2023-04-23T07:23:24;99611.42;;;20.00;40.38
63708;BME280;67643;-34.198;22.084;2023-04-23T07:25:52;99610.31;;;19.99;40.45
63708;BME280;67643;-34.198;22.084;2023-04-23T07:28:21;99610.64;;;20.10;40.32
63708;BME280;67643;-34.198;22.084;2023-04-23T07:30:49;99606.77;;;20.02;40.52
63708;BME280;67643;-34.198;22.084;2023-04-23T07:33:18;99603.03;;;20.14;40.51
63708;BME280;67643;-34.198;22.084;2023-04-23T07:35:47;99604.57;;;20.14;40.64
63708;BME280;67643;-34.198;22.084;2023-04-23T07:38:15;99610.20;;;20.37;40.39
63708;BME280;67643;-34.198;22.084;2023-04-23T07:40:43;99606.85;;;20.13;40.34
63708;BME280;67643;-34.198;22.084;2023-04-23T07:43:11;99605.53;;;20.28;40.23
63708;BME280;67643;-34.198;22.084;2023-04-23T07:45:40;99613.82;;;20.70;40.34
63708;BME280;67643;-34.198;22.084;2023-04-23T07:48:09;99617.14;;;20.92;39.90
63708;BME280;67643;-34.198;22.084;2023-04-23T07:50:37;99622.32;;;20.78;40.15
63708;BME280;67643;-34.198;22.084;2023-04-23T07:53:06;99619.07;;;20.88;39.67
63708;BME280;67643;-34.198;22.084;2023-04-23T07:55:35;99615.54;;;21.00;39.81
63708;BME280;67643;-34.198;22.084;2023-04-23T07:58:03;99621.24;;;20.69;39.94
63708;BME280;67643;-34.198;22.084;2023-04-23T08:00:32;99621.73;;;20.89;39.67
63708;BME280;67643;-34.198;22.084;2023-04-23T10:28:18;99592.10;;;19.91;48.15
63708;BME280;67643;-34.198;22.084;2023-04-23T10:30:50;99598.63;;;21.14;43.96
63708;BME280;67643;-34.198;22.084;2023-04-23T10:33:18;99593.81;;;22.25;41.73
63708;BME280;67643;-34.198;22.084;2023-04-23T10:35:48;99597.40;;;22.44;40.94
63708;BME280;67643;-34.198;22.084;2023-04-23T10:38:17;99593.15;;;23.28;40.08
63708;BME280;67643;-34.198;22.084;2023-04-23T10:40:46;99596.18;;;22.55;40.02
63708;BME280;67643;-34.198;22.084;2023-04-23T10:43:17;99599.29;;;22.93;39.95
63708;BME280;67643;-34.198;22.084;2023-04-23T10:45:48;99599.00;;;23.01;39.43
63708;BME280;67643;-34.198;22.084;2023-04-23T10:48:16;99588.62;;;23.28;39.21
63708;BME280;67643;-34.198;22.084;2023-04-23T10:50:45;99580.06;;;23.80;38.29
63708;BME280;67643;-34.198;22.084;2023-04-23T10:53:19;99567.50;;;23.42;38.80
63708;BME280;67643;-34.198;22.084;2023-04-23T10:55:47;99565.47;;;23.43;38.79
63708;BME280;67643;-34.198;22.084;2023-04-23T10:58:16;99568.19;;;23.53;38.90
63708;BME280;67643;-34.198;22.084;2023-04-23T11:00:46;99557.31;;;23.45;38.66
63708;BME280;67643;-34.198;22.084;2023-04-23T11:03:35;99555.85;;;23.60;38.79
63708;BME280;67643;-34.198;22.084;2023-04-23T11:06:05;99549.30;;;23.29;38.86
63708;BME280;67643;-34.198;22.084;2023-04-23T11:08:35;99554.09;;;23.28;39.14
63708;BME280;67643;-34.198;22.084;2023-04-23T11:11:07;99541.50;;;23.39;39.04
63708;BME280;67643;-34.198;22.084;2023-04-23T11:13:36;99539.86;;;23.44;38.68
63708;BME280;67643;-34.198;22.084;2023-04-23T11:16:21;99540.21;;;23.35;39.01
63708;BME280;67643;-34.198;22.084;2023-04-23T11:19:10;99541.51;;;23.31;39.09
63708;BME280;67643;-34.198;22.084;2023-04-23T11:22:45;99544.79;;;23.23;39.22
63708;BME280;67643;-34.198;22.084;2023-04-23T11:25:20;99543.19;;;23.60;38.66
63708;BME280;67643;-34.198;22.084;2023-04-23T11:27:50;99530.29;;;23.18;39.29
63708;BME280;67643;-34.198;22.084;2023-04-23T11:30:20;99532.53;;;23.11;39.51
63708;BME280;67643;-34.198;22.084;2023-04-23T11:32:50;99529.31;;;22.96;39.51
63708;BME280;67643;-34.198;22.084;2023-04-23T11:35:20;99523.80;;;23.23;39.08
63708;BME280;67643;-34.198;22.084;2023-04-23T11:37:49;99518.90;;;23.20;38.73
63708;BME280;67643;-34.198;22.084;2023-04-23T11:40:19;99509.97;;;23.62;38.61
63708;BME280;67643;-34.198;22.084;2023-04-23T11:42:49;99504.28;;;23.55;38.40
63708;BME280;67643;-34.198;22.084;2023-04-23T11:45:18;99506.36;;;23.61;38.29
63708;BME280;67643;-34.198;22.084;2023-04-23T11:47:49;99506.25;;;23.69;38.20
63708;BME280;67643;-34.198;22.084;2023-04-23T11:50:19;99506.33;;;23.85;38.00
63708;BME280;67643;-34.198;22.084;2023-04-23T11:52:47;99507.27;;;23.92;38.09
63708;BME280;67643;-34.198;22.084;2023-04-23T11:55:17;99505.31;;;24.24;37.71
63708;BME280;67643;-34.198;22.084;2023-04-23T11:57:47;99498.22;;;24.04;37.60
63708;BME280;67643;-34.198;22.084;2023-04-23T12:00:18;99496.13;;;24.07;37.62
63708;BME280;67643;-34.198;22.084;2023-04-23T12:02:52;99499.19;;;23.44;38.12
63708;BME280;67643;-34.198;22.084;2023-04-23T12:05:22;99492.63;;;24.22;37.38
63708;BME280;67643;-34.198;22.084;2023-04-23T12:07:51;99487.37;;;24.07;37.58
63708;BME280;67643;-34.198;22.084;2023-04-23T12:10:20;99487.07;;;24.43;37.39
63708;BME280;67643;-34.198;22.084;2023-04-23T12:12:50;99492.67;;;24.08;37.59
63708;BME280;67643;-34.198;22.084;2023-04-23T12:15:20;99491.28;;;24.41;37.22
63708;BME280;67643;-34.198;22.084;2023-04-23T12:17:49;99481.62;;;24.23;37.13
63708;BME280;67643;-34.198;22.084;2023-04-23T12:20:19;99492.80;;;24.23;37.20
63708;BME280;67643;-34.198;22.084;2023-04-23T12:22:48;99491.50;;;24.07;37.40
63708;BME280;67643;-34.198;22.084;2023-04-23T12:25:22;99502.77;;;23.93;37.60
63708;BME280;67643;-34.198;22.084;2023-04-23T12:27:51;99501.64;;;23.86;37.67
63708;BME280;67643;-34.198;22.084;2023-04-23T12:30:20;99508.46;;;23.73;37.90
63708;BME280;67643;-34.198;22.084;2023-04-23T12:32:48;99501.59;;;23.81;37.85
63708;BME280;67643;-34.198;22.084;2023-04-23T12:35:17;99498.33;;;24.16;37.32
63708;BME280;67643;-34.198;22.084;2023-04-23T12:37:45;99493.72;;;23.64;37.99
63708;BME280;67643;-34.198;22.084;2023-04-23T12:40:14;99500.57;;;24.10;37.45
63708;BME280;67643;-34.198;22.084;2023-04-23T12:42:42;99508.17;;;24.16;37.33
63708;BME280;67643;-34.198;22.084;2023-04-23T12:45:11;99513.22;;;24.13;37.42
63708;BME280;67643;-34.198;22.084;2023-04-23T12:47:39;99509.31;;;24.00;37.54
63708;BME280;67643;-34.198;22.084;2023-04-23T12:50:08;99516.97;;;24.40;37.82
63708;BME280;67643;-34.198;22.084;2023-04-23T12:52:37;99512.99;;;24.20;38.00
63708;BME280;67643;-34.198;22.084;2023-04-23T12:55:06;99514.15;;;24.26;37.66
63708;BME280;67643;-34.198;22.084;2023-04-23T12:57:34;99521.14;;;23.57;38.01
63708;BME280;67643;-34.198;22.084;2023-04-23T13:00:03;99526.56;;;23.99;37.80
63708;BME280;67643;-34.198;22.084;2023-04-23T13:02:32;99519.28;;;24.28;37.56
63708;BME280;67643;-34.198;22.084;2023-04-23T13:05:00;99530.39;;;23.89;37.96
63708;BME280;67643;-34.198;22.084;2023-04-23T13:07:29;99519.07;;;24.42;37.23
63708;BME280;67643;-34.198;22.084;2023-04-23T13:09:57;99519.13;;;24.39;36.96
63708;BME280;67643;-34.198;22.084;2023-04-23T13:12:26;99512.63;;;24.42;36.92
63708;BME280;67643;-34.198;22.084;2023-04-23T13:14:55;99512.11;;;24.78;37.14
63708;BME280;67643;-34.198;22.084;2023-04-23T13:17:23;99507.25;;;24.09;37.46
63708;BME280;67643;-34.198;22.084;2023-04-23T13:19:51;99503.89;;;24.34;37.08
63708;BME280;67643;-34.198;22.084;2023-04-23T13:22:20;99512.06;;;24.69;36.53
63708;BME280;67643;-34.198;22.084;2023-04-23T13:24:49;99525.10;;;25.21;35.81
63708;BME280;67643;-34.198;22.084;2023-04-23T13:27:17;99522.50;;;25.05;35.92
63708;BME280;67643;-34.198;22.084;2023-04-23T13:29:47;99527.51;;;24.81;36.01
63708;BME280;67643;-34.198;22.084;2023-04-23T13:32:16;99530.76;;;25.64;35.19
63708;BME280;67643;-34.198;22.084;2023-04-23T13:34:45;99536.02;;;25.25;35.50
63708;BME280;67643;-34.198;22.084;2023-04-23T13:37:13;99541.49;;;25.24;35.53
63708;BME280;67643;-34.198;22.084;2023-04-23T13:39:42;99547.54;;;25.30;35.52
63708;BME280;67643;-34.198;22.084;2023-04-23T13:42:11;99550.45;;;24.85;36.19
63708;BME280;67643;-34.198;22.084;2023-04-23T13:44:39;99559.03;;;24.73;36.80
63708;BME280;67643;-34.198;22.084;2023-04-23T13:47:08;99558.42;;;24.49;37.33
63708;BME280;67643;-34.198;22.084;2023-04-23T13:49:36;99560.57;;;24.46;37.25
63708;BME280;67643;-34.198;22.084;2023-04-23T13:52:05;99550.12;;;24.15;37.64
63708;BME280;67643;-34.198;22.084;2023-04-23T13:54:33;99548.26;;;24.61;37.39
63708;BME280;67643;-34.198;22.084;2023-04-23T13:57:02;99552.24;;;23.94;37.64
63708;BME280;67643;-34.198;22.084;2023-04-23T13:59:31;99548.46;;;24.03;37.55
63708;BME280;67643;-34.198;22.084;2023-04-23T14:01:59;99548.52;;;23.82;37.85
63708;BME280;67643;-34.198;22.084;2023-04-23T14:04:28;99553.52;;;23.73;37.97
63708;BME280;67643;-34.198;22.084;2023-04-23T14:06:56;99558.70;;;24.08;37.52
63708;BME280;67643;-34.198;22.084;2023-04-23T14:09:25;99564.94;;;24.39;37.14
63708;BME280;67643;-34.198;22.084;2023-04-23T14:11:54;99561.02;;;24.09;37.53
63708;BME280;67643;-34.198;22.084;2023-04-23T14:14:23;99564.13;;;23.60;37.91
63708;BME280;67643;-34.198;22.084;2023-04-23T14:16:51;99563.27;;;24.08;37.59
63708;BME280;67643;-34.198;22.084;2023-04-23T14:19:20;99570.29;;;24.17;37.42
63708;BME280;67643;-34.198;22.084;2023-04-23T14:21:48;99566.05;;;24.11;37.50
63708;BME280;67643;-34.198;22.084;2023-04-23T14:24:21;99560.80;;;24.45;37.44
63708;BME280;67643;-34.198;22.084;2023-04-23T14:26:49;99565.05;;;24.44;37.47
63708;BME280;67643;-34.198;22.084;2023-04-23T14:29:23;99568.49;;;24.29;37.33
63708;BME280;67643;-34.198;22.084;2023-04-23T14:31:52;99566.87;;;24.49;37.44
63708;BME280;67643;-34.198;22.084;2023-04-23T14:34:21;99558.54;;;24.13;37.58
63708;BME280;67643;-34.198;22.084;2023-04-23T14:36:50;99560.34;;;24.06;37.69
63708;BME280;67643;-34.198;22.084;2023-04-23T14:39:20;99564.04;;;24.58;37.70
63708;BME280;67643;-34.198;22.084;2023-04-23T14:41:49;99559.19;;;23.93;37.94
63708;BME280;67643;-34.198;22.084;2023-04-23T14:44:18;99562.08;;;23.95;37.98
63708;BME280;67643;-34.198;22.084;2023-04-23T14:46:46;99559.87;;;23.99;37.98
63708;BME280;67643;-34.198;22.084;2023-04-23T14:49:14;99555.89;;;23.89;38.13
63708;BME280;67643;-34.198;22.084;2023-04-23T14:51:43;99557.65;;;24.32;37.94
63708;BME280;67643;-34.198;22.084;2023-04-23T14:54:12;99563.95;;;24.21;38.15
63708;BME280;67643;-34.198;22.084;2023-04-23T14:56:40;99566.66;;;23.91;38.23
63708;BME280;67643;-34.198;22.084;2023-04-23T14:59:08;99569.01;;;23.87;38.43
63708;BME280;67643;-34.198;22.084;2023-04-23T15:01:37;99569.31;;;23.81;38.50
63708;BME280;67643;-34.198;22.084;2023-04-23T15:04:05;99571.41;;;24.36;38.43
63708;BME280;67643;-34.198;22.084;2023-04-23T15:06:34;99575.39;;;23.76;38.94
63708;BME280;67643;-34.198;22.084;2023-04-23T15:09:02;99579.24;;;23.89;38.97
63708;BME280;67643;-34.198;22.084;2023-04-23T15:11:31;99582.10;;;23.90;38.94
63708;BME280;67643;-34.198;22.084;2023-04-23T15:14:05;99582.19;;;23.50;39.85
63708;BME280;67643;-34.198;22.084;2023-04-23T15:16:35;99584.73;;;22.66;40.62
63708;BME280;67643;-34.198;22.084;2023-04-23T15:19:04;99590.91;;;22.91;41.18
63708;BME280;67643;-34.198;22.084;2023-04-23T15:21:33;99588.82;;;22.46;42.28
63708;BME280;67643;-34.198;22.084;2023-04-23T15:24:02;99590.87;;;23.14;42.19
63708;BME280;67643;-34.198;22.084;2023-04-23T15:26:30;99593.88;;;23.41;41.12
63708;BME280;67643;-34.198;22.084;2023-04-23T15:28:59;99596.02;;;23.78;40.86
63708;BME280;67643;-34.198;22.084;2023-04-23T15:31:27;99592.93;;;23.42;41.07
63708;BME280;67643;-34.198;22.084;2023-04-23T15:33:56;99595.86;;;23.45;40.97
63708;BME280;67643;-34.198;22.084;2023-04-23T15:36:25;99592.89;;;23.73;41.20
63708;BME280;67643;-34.198;22.084;2023-04-23T15:38:54;99593.20;;;23.72;40.95
63708;BME280;67643;-34.198;22.084;2023-04-23T15:41:22;99591.39;;;23.66;41.03
63708;BME280;67643;-34.198;22.084;2023-04-23T15:43:50;99596.09;;;23.41;41.45
63708;BME280;67643;-34.198;22.084;2023-04-23T15:46:19;99600.02;;;23.05;42.00
63708;BME280;67643;-34.198;22.084;2023-04-23T15:48:48;99597.05;;;23.10;41.99
63708;BME280;67643;-34.198;22.084;2023-04-23T15:51:16;99599.01;;;22.93;42.31
63708;BME280;67643;-34.198;22.084;2023-04-23T15:53:44;99597.70;;;23.33;41.79
63708;BME280;67643;-34.198;22.084;2023-04-23T15:56:13;99594.57;;;23.12;42.22
63708;BME280;67643;-34.198;22.084;2023-04-23T15:58:41;99591.44;;;23.29;41.91
63708;BME280;67643;-34.198;22.084;2023-04-23T16:01:10;99589.56;;;23.11;42.05
63708;BME280;67643;-34.198;22.084;2023-04-23T18:08:47;99723.39;;;18.56;50.81
63708;BME280;67643;-34.198;22.084;2023-04-23T18:11:15;99720.72;;;19.83;47.23
63708;BME280;67643;-34.198;22.084;2023-04-23T18:13:43;99720.46;;;20.64;44.91
63708;BME280;67643;-34.198;22.084;2023-04-23T18:16:12;99716.73;;;21.31;43.21
63708;BME280;67643;-34.198;22.084;2023-04-23T18:18:40;99716.79;;;21.46;42.49
63708;BME280;67643;-34.198;22.084;2023-04-23T18:21:09;99717.88;;;21.93;41.46
63708;BME280;67643;-34.198;22.084;2023-04-23T18:23:38;99719.92;;;21.85;41.17
63708;BME280;67643;-34.198;22.084;2023-04-23T18:26:06;99716.78;;;22.35;40.80
63708;BME280;67643;-34.198;22.084;2023-04-23T18:28:34;99715.62;;;22.11;40.74
63708;BME280;67643;-34.198;22.084;2023-04-23T18:31:03;99712.95;;;22.52;40.48
63708;BME280;67643;-34.198;22.084;2023-04-23T18:33:41;99709.06;;;21.53;41.42
63708;BME280;67643;-34.198;22.084;2023-04-23T18:36:19;99707.88;;;21.48;41.54
63708;BME280;67643;-34.198;22.084;2023-04-23T18:38:51;99708.69;;;21.66;40.90
63708;BME280;67643;-34.198;22.084;2023-04-23T18:41:20;99707.08;;;22.02;40.69
63708;BME280;67643;-34.198;22.084;2023-04-23T18:43:48;99705.55;;;21.44;41.16
63708;BME280;67643;-34.198;22.084;2023-04-23T18:46:17;99700.20;;;21.79;40.63
63708;BME280;67643;-34.198;22.084;2023-04-23T18:48:51;99698.05;;;21.86;40.74
63708;BME280;67643;-34.198;22.084;2023-04-23T18:51:25;99701.71;;;21.43;40.92
63708;BME280;67643;-34.198;22.084;2023-04-23T18:53:56;99698.71;;;22.08;40.40
63708;BME280;67643;-34.198;22.084;2023-04-23T18:56:25;99697.57;;;21.78;40.63
63708;BME280;67643;-34.198;22.084;2023-04-23T18:58:53;99702.19;;;22.03;39.90
63708;BME280;67643;-34.198;22.084;2023-04-23T19:01:22;99704.31;;;21.94;40.42
63708;BME280;67643;-34.198;22.084;2023-04-23T19:03:52;99703.34;;;21.59;40.46
63708;BME280;67643;-34.198;22.084;2023-04-23T19:06:20;99712.76;;;21.85;40.02
63708;BME280;67643;-34.198;22.084;2023-04-23T19:08:50;99712.58;;;21.74;40.18
63708;BME280;67643;-34.198;22.084;2023-04-23T19:11:18;99713.93;;;21.51;40.57
63708;BME280;67643;-34.198;22.084;2023-04-23T19:13:46;99710.24;;;21.28;40.84
63708;BME280;67643;-34.198;22.084;2023-04-23T19:16:15;99702.30;;;21.52;40.32
63708;BME280;67643;-34.198;22.084;2023-04-23T19:18:43;99695.78;;;21.80;40.28
63708;BME280;67643;-34.198;22.084;2023-04-23T19:21:12;99691.57;;;21.94;40.14
63708;BME280;67643;-34.198;22.084;2023-04-23T19:23:41;99686.99;;;21.52;40.31